sensor_id;sensor_type;location;lat;lon;timestamp;P1;durP1;ratioP1;P2;durP2;ratioP2
2462;SDS011;1243;54.298;10.172;2023-10-13T00:02:01;4.40;;;3.10;;
2462;SDS011;1243;54.298;10.172;2023-10-13T00:04:30;3.23;;;2.90;;
2462;SDS011;1243;54.298;10.172;2023-10-13T00:06:58;4.57;;;3.27;;
2462;SDS011;1243;54.298;10.172;2023-10-13T00:09:27;7.97;;;3.40;;
2462;SDS011;1243;54.298;10.172;2023-10-13T00:12:06;5.00;;;4.20;;
2462;SDS011;1243;54.298;10.172;2023-10-13T00:14:35;5.93;;;2.80;;
2462;SDS011;1243;54.298;10.172;2023-10-13T00:17:03;5.13;;;2.93;;
2462;SDS011;1243;54.298;10.172;2023-10-13T00:19:36;4.57;;;3.30;;
2462;SDS011;1243;54.298;10.172;2023-10-13T00:22:09;6.10;;;4.40;;
2462;SDS011;1243;54.298;10.172;2023-10-13T00:24:39;2.83;;;2.57;;
2462;SDS011;1243;54.298;10.172;2023-10-13T00:27:13;4.37;;;3.03;;
2462;SDS011;1243;54.298;10.172;2023-10-13T00:29:58;9.13;;;2.83;;
2462;SDS011;1243;54.298;10.172;2023-10-13T00:32:42;9.83;;;3.30;;
2462;SDS011;1243;54.298;10.172;2023-10-13T00:35:21;3.07;;;2.87;;
2462;SDS011;1243;54.298;10.172;2023-10-13T00:37:51;9.10;;;3.00;;
2462;SDS011;1243;54.298;10.172;2023-10-13T00:40:21;11.03;;;3.30;;
2462;SDS011;1243;54.298;10.172;2023-10-13T00:43:13;6.40;;;3.10;;
2462;SDS011;1243;54.298;10.172;2023-10-13T00:45:41;6.43;;;3.83;;
2462;SDS011;1243;54.298;10.172;2023-10-13T00:48:09;9.93;;;3.40;;
2462;SDS011;1243;54.298;10.172;2023-10-13T00:50:38;5.20;;;3.57;;
2462;SDS011;1243;54.298;10.172;2023-10-13T00:53:05;9.73;;;3.30;;
2462;SDS011;1243;54.298;10.172;2023-10-13T00:55:32;8.50;;;3.20;;
2462;SDS011;1243;54.298;10.172;2023-10-13T00:58:01;9.77;;;3.03;;
2462;SDS011;1243;54.298;10.172;2023-10-13T01:00:31;10.27;;;3.33;;
2462;SDS011;1243;54.298;10.172;2023-10-13T01:02:57;8.23;;;4.50;;
2462;SDS011;1243;54.298;10.172;2023-10-13T01:05:32;17.60;;;3.83;;
2462;SDS011;1243;54.298;10.172;2023-10-13T01:08:01;5.90;;;3.43;;
2462;SDS011;1243;54.298;10.172;2023-10-13T01:10:28;9.73;;;4.07;;
2462;SDS011;1243;54.298;10.172;2023-10-13T01:12:57;7.83;;;4.13;;
2462;SDS011;1243;54.298;10.172;2023-10-13T01:15:24;8.10;;;4.20;;
2462;SDS011;1243;54.298;10.172;2023-10-13T01:18:11;12.30;;;4.17;;
2462;SDS011;1243;54.298;10.172;2023-10-13T01:20:38;4.43;;;3.77;;
2462;SDS011;1243;54.298;10.172;2023-10-13T01:23:12;5.90;;;3.53;;
2462;SDS011;1243;54.298;10.172;2023-10-13T01:25:44;10.20;;;3.63;;
2462;SDS011;1243;54.298;10.172;2023-10-13T01:28:11;4.87;;;3.63;;
2462;SDS011;1243;54.298;10.172;2023-10-13T01:30:44;9.27;;;3.50;;
2462;SDS011;1243;54.298;10.172;2023-10-13T01:33:17;10.40;;;3.90;;
2462;SDS011;1243;54.298;10.172;2023-10-13T01:35:52;12.97;;;4.00;;
2462;SDS011;1243;54.298;10.172;2023-10-13T01:38:20;5.00;;;3.30;;
2462;SDS011;1243;54.298;10.172;2023-10-13T01:40:46;5.50;;;3.47;;
2462;SDS011;1243;54.298;10.172;2023-10-13T01:43:16;9.00;;;3.90;;
2462;SDS011;1243;54.298;10.172;2023-10-13T01:45:42;6.20;;;3.80;;
2462;SDS011;1243;54.298;10.172;2023-10-13T01:48:12;4.03;;;3.47;;
2462;SDS011;1243;54.298;10.172;2023-10-13T01:50:41;6.80;;;3.53;;
2462;SDS011;1243;54.298;10.172;2023-10-13T01:53:12;7.07;;;4.07;;
2462;SDS011;1243;54.298;10.172;2023-10-13T01:55:42;5.00;;;3.03;;
2462;SDS011;1243;54.298;10.172;2023-10-13T01:58:12;9.40;;;3.93;;
2462;SDS011;1243;54.298;10.172;2023-10-13T02:00:42;7.00;;;3.73;;
2462;SDS011;1243;54.298;10.172;2023-10-13T02:03:09;9.60;;;4.03;;
2462;SDS011;1243;54.298;10.172;2023-10-13T02:05:42;3.60;;;3.30;;
2462;SDS011;1243;54.298;10.172;2023-10-13T02:08:12;4.63;;;3.60;;
2462;SDS011;1243;54.298;10.172;2023-10-13T02:10:43;6.07;;;4.70;;
2462;SDS011;1243;54.298;10.172;2023-10-13T02:13:13;5.67;;;3.60;;
2462;SDS011;1243;54.298;10.172;2023-10-13T02:15:46;4.60;;;4.20;;
2462;SDS011;1243;54.298;10.172;2023-10-13T02:18:16;4.37;;;3.53;;
2462;SDS011;1243;54.298;10.172;2023-10-13T02:20:55;9.10;;;4.03;;
2462;SDS011;1243;54.298;10.172;2023-10-13T02:23:25;8.00;;;4.30;;
2462;SDS011;1243;54.298;10.172;2023-10-13T02:25:54;8.07;;;3.80;;
2462;SDS011;1243;54.298;10.172;2023-10-13T02:28:28;6.00;;;4.00;;
2462;SDS011;1243;54.298;10.172;2023-10-13T02:31:01;6.60;;;4.07;;
2462;SDS011;1243;54.298;10.172;2023-10-13T02:33:31;7.87;;;3.50;;
2462;SDS011;1243;54.298;10.172;2023-10-13T02:36:02;10.70;;;3.77;;
2462;SDS011;1243;54.298;10.172;2023-10-13T02:38:31;8.77;;;3.70;;
2462;SDS011;1243;54.298;10.172;2023-10-13T02:41:02;5.40;;;3.90;;
2462;SDS011;1243;54.298;10.172;2023-10-13T02:43:37;7.03;;;4.17;;
2462;SDS011;1243;54.298;10.172;2023-10-13T02:46:03;6.63;;;3.93;;
2462;SDS011;1243;54.298;10.172;2023-10-13T02:48:29;6.97;;;4.37;;
2462;SDS011;1243;54.298;10.172;2023-10-13T02:51:04;4.70;;;4.20;;
2462;SDS011;1243;54.298;10.172;2023-10-13T02:53:40;7.87;;;4.43;;
2462;SDS011;1243;54.298;10.172;2023-10-13T02:56:07;7.03;;;5.07;;
2462;SDS011;1243;54.298;10.172;2023-10-13T02:58:33;6.47;;;4.80;;
2462;SDS011;1243;54.298;10.172;2023-10-13T03:01:05;6.93;;;5.30;;
2462;SDS011;1243;54.298;10.172;2023-10-13T03:03:42;15.90;;;5.87;;
2462;SDS011;1243;54.298;10.172;2023-10-13T03:06:19;8.97;;;6.10;;
2462;SDS011;1243;54.298;10.172;2023-10-13T03:08:49;11.00;;;6.17;;
2462;SDS011;1243;54.298;10.172;2023-10-13T03:11:17;14.17;;;8.23;;
2462;SDS011;1243;54.298;10.172;2023-10-13T03:13:48;12.00;;;7.77;;
2462;SDS011;1243;54.298;10.172;2023-10-13T03:16:17;16.83;;;7.90;;
2462;SDS011;1243;54.298;10.172;2023-10-13T03:18:44;22.77;;;9.20;;
2462;SDS011;1243;54.298;10.172;2023-10-13T03:21:21;17.50;;;9.10;;
2462;SDS011;1243;54.298;10.172;2023-10-13T03:23:58;28.53;;;10.60;;
2462;SDS011;1243;54.298;10.172;2023-10-13T03:26:29;19.33;;;9.83;;
2462;SDS011;1243;54.298;10.172;2023-10-13T03:29:00;30.57;;;11.50;;
2462;SDS011;1243;54.298;10.172;2023-10-13T03:31:28;21.63;;;11.13;;
2462;SDS011;1243;54.298;10.172;2023-10-13T03:33:55;23.40;;;10.70;;
2462;SDS011;1243;54.298;10.172;2023-10-13T03:36:24;26.50;;;11.10;;
2462;SDS011;1243;54.298;10.172;2023-10-13T03:39:09;23.10;;;10.20;;
2462;SDS011;1243;54.298;10.172;2023-10-13T03:41:36;25.13;;;10.07;;
2462;SDS011;1243;54.298;10.172;2023-10-13T03:44:04;25.23;;;10.20;;
2462;SDS011;1243;54.298;10.172;2023-10-13T03:46:35;26.20;;;9.73;;
2462;SDS011;1243;54.298;10.172;2023-10-13T03:49:02;21.80;;;10.33;;
2462;SDS011;1243;54.298;10.172;2023-10-13T03:51:31;17.67;;;9.90;;
2462;SDS011;1243;54.298;10.172;2023-10-13T03:53:57;23.83;;;11.17;;
2462;SDS011;1243;54.298;10.172;2023-10-13T03:58:56;20.07;;;9.67;;
2462;SDS011;1243;54.298;10.172;2023-10-13T04:01:35;13.17;;;8.67;;
2462;SDS011;1243;54.298;10.172;2023-10-13T04:04:16;23.33;;;10.00;;
2462;SDS011;1243;54.298;10.172;2023-10-13T04:07:01;19.17;;;9.60;;
2462;SDS011;1243;54.298;10.172;2023-10-13T04:09:31;22.63;;;9.80;;
2462;SDS011;1243;54.298;10.172;2023-10-13T04:11:57;18.77;;;9.10;;
2462;SDS011;1243;54.298;10.172;2023-10-13T04:14:26;27.00;;;11.33;;
2462;SDS011;1243;54.298;10.172;2023-10-13T04:17:14;21.53;;;9.63;;
2462;SDS011;1243;54.298;10.172;2023-10-13T04:19:40;23.53;;;10.13;;
2462;SDS011;1243;54.298;10.172;2023-10-13T04:22:24;21.23;;;9.33;;
2462;SDS011;1243;54.298;10.172;2023-10-13T04:28:04;26.03;;;11.20;;
2462;SDS011;1243;54.298;10.172;2023-10-13T04:30:38;18.43;;;9.43;;
2462;SDS011;1243;54.298;10.172;2023-10-13T04:33:18;22.13;;;10.00;;
2462;SDS011;1243;54.298;10.172;2023-10-13T04:36:02;27.13;;;10.87;;
2462;SDS011;1243;54.298;10.172;2023-10-13T04:38:53;15.43;;;8.60;;
2462;SDS011;1243;54.298;10.172;2023-10-13T04:41:30;18.87;;;9.70;;
2462;SDS011;1243;54.298;10.172;2023-10-13T04:44:22;14.57;;;7.90;;
2462;SDS011;1243;54.298;10.172;2023-10-13T04:46:55;14.33;;;8.33;;
2462;SDS011;1243;54.298;10.172;2023-10-13T04:49:28;11.10;;;7.30;;
2462;SDS011;1243;54.298;10.172;2023-10-13T04:52:15;12.87;;;9.23;;
2462;SDS011;1243;54.298;10.172;2023-10-13T04:54:59;18.03;;;8.00;;
2462;SDS011;1243;54.298;10.172;2023-10-13T04:57:41;13.87;;;7.47;;
2462;SDS011;1243;54.298;10.172;2023-10-13T05:00:18;13.00;;;7.97;;
2462;SDS011;1243;54.298;10.172;2023-10-13T05:02:44;13.57;;;8.00;;
2462;SDS011;1243;54.298;10.172;2023-10-13T05:05:42;12.50;;;6.83;;
2462;SDS011;1243;54.298;10.172;2023-10-13T05:08:27;10.50;;;7.47;;
2462;SDS011;1243;54.298;10.172;2023-10-13T05:11:11;13.30;;;8.23;;
2462;SDS011;1243;54.298;10.172;2023-10-13T05:13:55;17.83;;;8.07;;
2462;SDS011;1243;54.298;10.172;2023-10-13T05:16:39;20.70;;;7.90;;
2462;SDS011;1243;54.298;10.172;2023-10-13T05:19:23;11.23;;;7.43;;
2462;SDS011;1243;54.298;10.172;2023-10-13T05:22:07;11.97;;;8.10;;
2462;SDS011;1243;54.298;10.172;2023-10-13T05:24:51;13.17;;;7.63;;
2462;SDS011;1243;54.298;10.172;2023-10-13T05:27:35;15.27;;;7.07;;
2462;SDS011;1243;54.298;10.172;2023-10-13T05:30:19;9.23;;;6.80;;
2462;SDS011;1243;54.298;10.172;2023-10-13T05:33:23;8.80;;;6.90;;
2462;SDS011;1243;54.298;10.172;2023-10-13T05:36:11;11.73;;;7.57;;
2462;SDS011;1243;54.298;10.172;2023-10-13T05:38:55;12.03;;;8.00;;
2462;SDS011;1243;54.298;10.172;2023-10-13T05:41:39;9.87;;;7.70;;
2462;SDS011;1243;54.298;10.172;2023-10-13T05:44:23;9.87;;;7.10;;
2462;SDS011;1243;54.298;10.172;2023-10-13T05:47:18;12.87;;;7.70;;
2462;SDS011;1243;54.298;10.172;2023-10-13T05:50:02;13.37;;;8.00;;
2462;SDS011;1243;54.298;10.172;2023-10-13T05:52:44;10.93;;;8.33;;
2462;SDS011;1243;54.298;10.172;2023-10-13T05:55:26;17.53;;;8.67;;
2462;SDS011;1243;54.298;10.172;2023-10-13T05:58:11;15.40;;;8.73;;
2462;SDS011;1243;54.298;10.172;2023-10-13T06:00:56;12.13;;;8.77;;
2462;SDS011;1243;54.298;10.172;2023-10-13T06:03:41;11.23;;;7.97;;
2462;SDS011;1243;54.298;10.172;2023-10-13T06:06:25;13.47;;;9.27;;
2462;SDS011;1243;54.298;10.172;2023-10-13T06:09:10;10.80;;;9.03;;
2462;SDS011;1243;54.298;10.172;2023-10-13T06:11:54;14.13;;;9.80;;
2462;SDS011;1243;54.298;10.172;2023-10-13T06:14:39;12.47;;;9.10;;
2462;SDS011;1243;54.298;10.172;2023-10-13T06:17:23;15.73;;;10.37;;
2462;SDS011;1243;54.298;10.172;2023-10-13T06:20:08;17.63;;;10.27;;
2462;SDS011;1243;54.298;10.172;2023-10-13T06:22:52;13.67;;;10.27;;
2462;SDS011;1243;54.298;10.172;2023-10-13T06:25:37;18.03;;;10.57;;
2462;SDS011;1243;54.298;10.172;2023-10-13T06:28:21;17.20;;;12.00;;
2462;SDS011;1243;54.298;10.172;2023-10-13T06:31:06;17.10;;;11.53;;
2462;SDS011;1243;54.298;10.172;2023-10-13T06:33:32;20.57;;;13.17;;
2462;SDS011;1243;54.298;10.172;2023-10-13T06:36:03;25.83;;;14.70;;
2462;SDS011;1243;54.298;10.172;2023-10-13T06:38:34;25.03;;;14.53;;
2462;SDS011;1243;54.298;10.172;2023-10-13T06:41:04;18.93;;;13.50;;
2462;SDS011;1243;54.298;10.172;2023-10-13T06:43:34;27.80;;;15.97;;
2462;SDS011;1243;54.298;10.172;2023-10-13T06:46:08;20.77;;;15.20;;
2462;SDS011;1243;54.298;10.172;2023-10-13T06:48:39;24.73;;;15.40;;
2462;SDS011;1243;54.298;10.172;2023-10-13T06:51:06;24.60;;;15.40;;
2462;SDS011;1243;54.298;10.172;2023-10-13T06:53:48;28.40;;;16.20;;
2462;SDS011;1243;54.298;10.172;2023-10-13T06:56:14;35.37;;;16.87;;
2462;SDS011;1243;54.298;10.172;2023-10-13T06:58:52;32.93;;;17.57;;
2462;SDS011;1243;54.298;10.172;2023-10-13T07:01:24;29.50;;;17.53;;
2462;SDS011;1243;54.298;10.172;2023-10-13T07:03:51;41.67;;;19.50;;
2462;SDS011;1243;54.298;10.172;2023-10-13T07:06:26;32.37;;;17.97;;
2462;SDS011;1243;54.298;10.172;2023-10-13T07:08:52;31.03;;;19.60;;
2462;SDS011;1243;54.298;10.172;2023-10-13T07:11:23;35.90;;;19.27;;
2462;SDS011;1243;54.298;10.172;2023-10-13T07:14:07;34.33;;;20.90;;
2462;SDS011;1243;54.298;10.172;2023-10-13T07:16:42;30.57;;;16.80;;
2462;SDS011;1243;54.298;10.172;2023-10-13T07:19:14;30.47;;;19.50;;
2462;SDS011;1243;54.298;10.172;2023-10-13T07:21:44;37.43;;;17.23;;
2462;SDS011;1243;54.298;10.172;2023-10-13T07:24:10;27.87;;;17.33;;
2462;SDS011;1243;54.298;10.172;2023-10-13T07:26:41;28.93;;;17.90;;
2462;SDS011;1243;54.298;10.172;2023-10-13T07:29:12;31.67;;;18.50;;
2462;SDS011;1243;54.298;10.172;2023-10-13T07:31:39;28.13;;;17.70;;
2462;SDS011;1243;54.298;10.172;2023-10-13T07:34:06;28.63;;;17.57;;
2462;SDS011;1243;54.298;10.172;2023-10-13T07:36:45;27.20;;;16.77;;
2462;SDS011;1243;54.298;10.172;2023-10-13T07:39:11;25.40;;;15.80;;
2462;SDS011;1243;54.298;10.172;2023-10-13T07:41:49;30.97;;;17.20;;
2462;SDS011;1243;54.298;10.172;2023-10-13T07:44:19;27.00;;;17.43;;
2462;SDS011;1243;54.298;10.172;2023-10-13T07:46:54;25.20;;;15.43;;
2462;SDS011;1243;54.298;10.172;2023-10-13T07:49:28;24.47;;;15.17;;
2462;SDS011;1243;54.298;10.172;2023-10-13T07:51:59;22.57;;;16.20;;
2462;SDS011;1243;54.298;10.172;2023-10-13T07:54:28;23.87;;;15.90;;
2462;SDS011;1243;54.298;10.172;2023-10-13T07:56:54;20.33;;;14.87;;
2462;SDS011;1243;54.298;10.172;2023-10-13T07:59:20;27.40;;;15.40;;
2462;SDS011;1243;54.298;10.172;2023-10-13T08:01:49;25.63;;;16.50;;
2462;SDS011;1243;54.298;10.172;2023-10-13T08:04:35;23.10;;;14.50;;
2462;SDS011;1243;54.298;10.172;2023-10-13T08:07:02;23.57;;;14.33;;
2462;SDS011;1243;54.298;10.172;2023-10-13T08:09:38;20.57;;;13.40;;
2462;SDS011;1243;54.298;10.172;2023-10-13T08:12:06;25.33;;;15.03;;
2462;SDS011;1243;54.298;10.172;2023-10-13T08:14:37;18.37;;;14.07;;
2462;SDS011;1243;54.298;10.172;2023-10-13T08:17:05;19.93;;;14.70;;
2462;SDS011;1243;54.298;10.172;2023-10-13T08:19:39;16.93;;;14.10;;
2462;SDS011;1243;54.298;10.172;2023-10-13T08:22:07;19.73;;;13.47;;
2462;SDS011;1243;54.298;10.172;2023-10-13T08:24:49;21.20;;;14.83;;
2462;SDS011;1243;54.298;10.172;2023-10-13T08:27:19;17.97;;;13.97;;
2462;SDS011;1243;54.298;10.172;2023-10-13T08:29:59;20.93;;;14.23;;
2462;SDS011;1243;54.298;10.172;2023-10-13T08:32:27;23.47;;;14.30;;
2462;SDS011;1243;54.298;10.172;2023-10-13T08:34:57;17.33;;;13.17;;
2462;SDS011;1243;54.298;10.172;2023-10-13T08:37:24;20.90;;;12.53;;
2462;SDS011;1243;54.298;10.172;2023-10-13T08:39:54;18.33;;;13.23;;
2462;SDS011;1243;54.298;10.172;2023-10-13T08:42:33;17.03;;;12.50;;
2462;SDS011;1243;54.298;10.172;2023-10-13T08:45:06;18.97;;;14.03;;
2462;SDS011;1243;54.298;10.172;2023-10-13T08:47:49;17.40;;;12.80;;
2462;SDS011;1243;54.298;10.172;2023-10-13T08:50:35;15.70;;;10.43;;
2462;SDS011;1243;54.298;10.172;2023-10-13T08:53:24;17.40;;;12.20;;
2462;SDS011;1243;54.298;10.172;2023-10-13T08:55:50;16.07;;;11.40;;
2462;SDS011;1243;54.298;10.172;2023-10-13T08:58:30;15.20;;;11.07;;
2462;SDS011;1243;54.298;10.172;2023-10-13T09:01:31;14.67;;;12.60;;
2462;SDS011;1243;54.298;10.172;2023-10-13T09:06:43;15.20;;;9.83;;
2462;SDS011;1243;54.298;10.172;2023-10-13T09:09:29;10.00;;;8.00;;
2462;SDS011;1243;54.298;10.172;2023-10-13T09:12:12;15.80;;;8.17;;
2462;SDS011;1243;54.298;10.172;2023-10-13T09:14:51;8.37;;;7.50;;
2462;SDS011;1243;54.298;10.172;2023-10-13T09:17:24;9.30;;;7.53;;
2462;SDS011;1243;54.298;10.172;2023-10-13T09:20:04;9.13;;;7.27;;
2462;SDS011;1243;54.298;10.172;2023-10-13T09:22:52;9.47;;;7.70;;
2462;SDS011;1243;54.298;10.172;2023-10-13T09:25:28;5.80;;;5.23;;
2462;SDS011;1243;54.298;10.172;2023-10-13T09:30:46;6.97;;;5.13;;
2462;SDS011;1243;54.298;10.172;2023-10-13T09:33:13;5.37;;;4.80;;
2462;SDS011;1243;54.298;10.172;2023-10-13T09:35:46;5.33;;;4.83;;
2462;SDS011;1243;54.298;10.172;2023-10-13T09:38:18;6.03;;;5.40;;
2462;SDS011;1243;54.298;10.172;2023-10-13T09:40:44;5.23;;;4.73;;
2462;SDS011;1243;54.298;10.172;2023-10-13T09:43:19;5.20;;;4.73;;
2462;SDS011;1243;54.298;10.172;2023-10-13T09:45:47;5.10;;;4.60;;
2462;SDS011;1243;54.298;10.172;2023-10-13T09:48:37;5.90;;;5.30;;
2462;SDS011;1243;54.298;10.172;2023-10-13T09:51:11;6.40;;;4.60;;
2462;SDS011;1243;54.298;10.172;2023-10-13T09:53:39;4.73;;;4.33;;
2462;SDS011;1243;54.298;10.172;2023-10-13T09:56:14;5.80;;;4.83;;
2462;SDS011;1243;54.298;10.172;2023-10-13T09:58:53;5.33;;;4.50;;
2462;SDS011;1243;54.298;10.172;2023-10-13T10:01:27;4.30;;;4.00;;
2462;SDS011;1243;54.298;10.172;2023-10-13T10:04:09;5.93;;;4.17;;
2462;SDS011;1243;54.298;10.172;2023-10-13T10:06:51;5.30;;;4.60;;
2462;SDS011;1243;54.298;10.172;2023-10-13T10:09:25;5.10;;;4.60;;
2462;SDS011;1243;54.298;10.172;2023-10-13T10:17:09;6.13;;;4.80;;
2462;SDS011;1243;54.298;10.172;2023-10-13T10:19:48;7.60;;;4.97;;
2462;SDS011;1243;54.298;10.172;2023-10-13T10:25:04;9.00;;;5.50;;
2462;SDS011;1243;54.298;10.172;2023-10-13T10:27:57;5.90;;;5.40;;
2462;SDS011;1243;54.298;10.172;2023-10-13T10:30:24;5.83;;;5.20;;
2462;SDS011;1243;54.298;10.172;2023-10-13T10:32:57;7.40;;;5.63;;
2462;SDS011;1243;54.298;10.172;2023-10-13T10:35:31;12.30;;;5.70;;
2462;SDS011;1243;54.298;10.172;2023-10-13T10:41:02;6.60;;;6.00;;
2462;SDS011;1243;54.298;10.172;2023-10-13T10:48:41;12.53;;;6.73;;
2462;SDS011;1243;54.298;10.172;2023-10-13T10:51:13;9.93;;;6.67;;
2462;SDS011;1243;54.298;10.172;2023-10-13T10:53:46;7.17;;;6.47;;
2462;SDS011;1243;54.298;10.172;2023-10-13T10:56:17;7.03;;;6.00;;
2462;SDS011;1243;54.298;10.172;2023-10-13T10:59:01;8.30;;;7.17;;
2462;SDS011;1243;54.298;10.172;2023-10-13T11:01:29;9.97;;;6.40;;
2462;SDS011;1243;54.298;10.172;2023-10-13T11:04:04;7.33;;;5.90;;
2462;SDS011;1243;54.298;10.172;2023-10-13T11:06:36;8.67;;;7.50;;
2462;SDS011;1243;54.298;10.172;2023-10-13T11:09:10;9.50;;;7.60;;
2462;SDS011;1243;54.298;10.172;2023-10-13T11:11:53;8.03;;;7.00;;
2462;SDS011;1243;54.298;10.172;2023-10-13T11:14:26;11.80;;;7.50;;
2462;SDS011;1243;54.298;10.172;2023-10-13T11:16:56;8.23;;;7.07;;
2462;SDS011;1243;54.298;10.172;2023-10-13T11:19:43;9.33;;;7.70;;
2462;SDS011;1243;54.298;10.172;2023-10-13T11:24:55;15.33;;;8.20;;
2462;SDS011;1243;54.298;10.172;2023-10-13T11:27:27;8.43;;;6.20;;
2462;SDS011;1243;54.298;10.172;2023-10-13T11:30:13;9.00;;;6.93;;
2462;SDS011;1243;54.298;10.172;2023-10-13T11:32:43;9.33;;;6.87;;
2462;SDS011;1243;54.298;10.172;2023-10-13T11:35:11;10.63;;;7.17;;
2462;SDS011;1243;54.298;10.172;2023-10-13T11:37:47;9.00;;;7.20;;
2462;SDS011;1243;54.298;10.172;2023-10-13T11:40:38;14.93;;;7.50;;
2462;SDS011;1243;54.298;10.172;2023-10-13T11:43:24;13.53;;;7.10;;
2462;SDS011;1243;54.298;10.172;2023-10-13T11:45:51;13.90;;;7.13;;
2462;SDS011;1243;54.298;10.172;2023-10-13T11:48:35;11.87;;;7.20;;
2462;SDS011;1243;54.298;10.172;2023-10-13T11:51:05;12.23;;;6.83;;
2462;SDS011;1243;54.298;10.172;2023-10-13T11:53:49;7.23;;;6.50;;
2462;SDS011;1243;54.298;10.172;2023-10-13T11:56:19;17.33;;;7.37;;
2462;SDS011;1243;54.298;10.172;2023-10-13T11:58:48;14.97;;;7.27;;
2462;SDS011;1243;54.298;10.172;2023-10-13T12:01:14;14.40;;;7.90;;
2462;SDS011;1243;54.298;10.172;2023-10-13T12:03:44;9.97;;;7.10;;
2462;SDS011;1243;54.298;10.172;2023-10-13T12:06:30;7.90;;;5.80;;
2462;SDS011;1243;54.298;10.172;2023-10-13T12:09:06;9.63;;;8.17;;
2462;SDS011;1243;54.298;10.172;2023-10-13T12:12:05;16.37;;;7.67;;
2462;SDS011;1243;54.298;10.172;2023-10-13T12:14:30;11.27;;;7.00;;
2462;SDS011;1243;54.298;10.172;2023-10-13T12:17:05;16.47;;;7.10;;
2462;SDS011;1243;54.298;10.172;2023-10-13T12:19:37;11.33;;;6.67;;
2462;SDS011;1243;54.298;10.172;2023-10-13T12:22:04;11.57;;;7.47;;
2462;SDS011;1243;54.298;10.172;2023-10-13T12:24:33;9.83;;;5.80;;
2462;SDS011;1243;54.298;10.172;2023-10-13T12:27:02;13.40;;;7.10;;
2462;SDS011;1243;54.298;10.172;2023-10-13T12:29:39;10.90;;;7.70;;
2462;SDS011;1243;54.298;10.172;2023-10-13T12:32:11;13.77;;;8.73;;
2462;SDS011;1243;54.298;10.172;2023-10-13T12:34:38;13.00;;;7.67;;
2462;SDS011;1243;54.298;10.172;2023-10-13T12:37:26;11.53;;;7.83;;
2462;SDS011;1243;54.298;10.172;2023-10-13T12:40:08;13.53;;;8.10;;
2462;SDS011;1243;54.298;10.172;2023-10-13T12:42:54;10.27;;;7.83;;
2462;SDS011;1243;54.298;10.172;2023-10-13T12:45:41;10.40;;;7.93;;
2462;SDS011;1243;54.298;10.172;2023-10-13T12:48:26;16.27;;;7.23;;
2462;SDS011;1243;54.298;10.172;2023-10-13T12:51:10;12.43;;;7.10;;
2462;SDS011;1243;54.298;10.172;2023-10-13T12:53:46;11.40;;;7.13;;
2462;SDS011;1243;54.298;10.172;2023-10-13T12:56:13;9.53;;;6.67;;
2462;SDS011;1243;54.298;10.172;2023-10-13T12:58:39;16.40;;;8.27;;
2462;SDS011;1243;54.298;10.172;2023-10-13T13:01:05;10.70;;;7.50;;
2462;SDS011;1243;54.298;10.172;2023-10-13T13:03:34;12.83;;;9.10;;
2462;SDS011;1243;54.298;10.172;2023-10-13T13:05:59;8.13;;;7.40;;
2462;SDS011;1243;54.298;10.172;2023-10-13T13:08:32;18.33;;;7.50;;
2462;SDS011;1243;54.298;10.172;2023-10-13T13:11:09;14.33;;;7.20;;
2462;SDS011;1243;54.298;10.172;2023-10-13T13:13:36;9.60;;;5.57;;
2462;SDS011;1243;54.298;10.172;2023-10-13T13:16:01;17.47;;;6.33;;
2462;SDS011;1243;54.298;10.172;2023-10-13T13:18:29;9.93;;;5.70;;
2462;SDS011;1243;54.298;10.172;2023-10-13T13:20:54;12.03;;;6.10;;
2462;SDS011;1243;54.298;10.172;2023-10-13T13:23:21;12.33;;;6.70;;
2462;SDS011;1243;54.298;10.172;2023-10-13T13:25:50;8.80;;;5.67;;
2462;SDS011;1243;54.298;10.172;2023-10-13T13:28:17;16.63;;;7.53;;
2462;SDS011;1243;54.298;10.172;2023-10-13T13:30:43;8.77;;;6.87;;
2462;SDS011;1243;54.298;10.172;2023-10-13T13:33:09;10.63;;;6.03;;
2462;SDS011;1243;54.298;10.172;2023-10-13T13:35:36;13.10;;;5.30;;
2462;SDS011;1243;54.298;10.172;2023-10-13T13:38:08;10.43;;;5.60;;
2462;SDS011;1243;54.298;10.172;2023-10-13T13:40:54;10.63;;;5.60;;
2462;SDS011;1243;54.298;10.172;2023-10-13T13:43:20;21.27;;;6.40;;
2462;SDS011;1243;54.298;10.172;2023-10-13T13:46:05;12.53;;;6.33;;
2462;SDS011;1243;54.298;10.172;2023-10-13T13:48:35;11.20;;;6.60;;
2462;SDS011;1243;54.298;10.172;2023-10-13T13:51:05;14.67;;;6.70;;
2462;SDS011;1243;54.298;10.172;2023-10-13T13:53:39;11.70;;;7.13;;
2462;SDS011;1243;54.298;10.172;2023-10-13T13:56:09;12.10;;;5.53;;
2462;SDS011;1243;54.298;10.172;2023-10-13T13:58:35;8.93;;;6.43;;
2462;SDS011;1243;54.298;10.172;2023-10-13T14:01:03;10.93;;;6.10;;
2462;SDS011;1243;54.298;10.172;2023-10-13T14:03:40;7.53;;;4.70;;
2462;SDS011;1243;54.298;10.172;2023-10-13T14:06:14;10.63;;;4.97;;
2462;SDS011;1243;54.298;10.172;2023-10-13T14:08:54;10.20;;;5.20;;
2462;SDS011;1243;54.298;10.172;2023-10-13T14:11:21;9.70;;;4.70;;
2462;SDS011;1243;54.298;10.172;2023-10-13T14:14:08;15.63;;;6.33;;
2462;SDS011;1243;54.298;10.172;2023-10-13T14:16:41;8.13;;;5.63;;
2462;SDS011;1243;54.298;10.172;2023-10-13T14:19:12;12.63;;;6.30;;
2462;SDS011;1243;54.298;10.172;2023-10-13T14:21:58;13.00;;;6.13;;
2462;SDS011;1243;54.298;10.172;2023-10-13T14:24:25;10.13;;;5.00;;
2462;SDS011;1243;54.298;10.172;2023-10-13T14:26:58;9.77;;;5.70;;
2462;SDS011;1243;54.298;10.172;2023-10-13T14:29:34;15.60;;;4.90;;
2462;SDS011;1243;54.298;10.172;2023-10-13T14:32:05;15.47;;;5.70;;
2462;SDS011;1243;54.298;10.172;2023-10-13T14:34:42;11.70;;;5.23;;
2462;SDS011;1243;54.298;10.172;2023-10-13T14:37:19;9.60;;;5.27;;
2462;SDS011;1243;54.298;10.172;2023-10-13T14:39:56;7.00;;;4.70;;
2462;SDS011;1243;54.298;10.172;2023-10-13T14:42:25;14.73;;;5.57;;
2462;SDS011;1243;54.298;10.172;2023-10-13T14:44:52;9.23;;;5.63;;
2462;SDS011;1243;54.298;10.172;2023-10-13T14:47:24;13.30;;;6.50;;
2462;SDS011;1243;54.298;10.172;2023-10-13T14:49:51;12.43;;;5.70;;
2462;SDS011;1243;54.298;10.172;2023-10-13T14:52:19;13.77;;;5.90;;
2462;SDS011;1243;54.298;10.172;2023-10-13T14:54:48;11.93;;;6.57;;
2462;SDS011;1243;54.298;10.172;2023-10-13T14:57:20;17.47;;;7.73;;
2462;SDS011;1243;54.298;10.172;2023-10-13T14:59:50;9.97;;;6.60;;
2462;SDS011;1243;54.298;10.172;2023-10-13T15:02:19;11.93;;;7.37;;
2462;SDS011;1243;54.298;10.172;2023-10-13T15:04:48;10.80;;;6.23;;
2462;SDS011;1243;54.298;10.172;2023-10-13T15:07:15;13.13;;;6.30;;
2462;SDS011;1243;54.298;10.172;2023-10-13T15:09:42;10.60;;;6.00;;
2462;SDS011;1243;54.298;10.172;2023-10-13T15:12:08;14.50;;;7.40;;
2462;SDS011;1243;54.298;10.172;2023-10-13T15:14:38;11.90;;;6.80;;
2462;SDS011;1243;54.298;10.172;2023-10-13T15:17:07;14.83;;;7.03;;
2462;SDS011;1243;54.298;10.172;2023-10-13T15:19:41;18.10;;;6.93;;
2462;SDS011;1243;54.298;10.172;2023-10-13T15:22:08;13.03;;;7.47;;
2462;SDS011;1243;54.298;10.172;2023-10-13T15:24:41;14.40;;;7.47;;
2462;SDS011;1243;54.298;10.172;2023-10-13T15:27:22;18.57;;;8.10;;
2462;SDS011;1243;54.298;10.172;2023-10-13T15:29:48;14.23;;;8.57;;
2462;SDS011;1243;54.298;10.172;2023-10-13T15:32:16;17.90;;;8.23;;
2462;SDS011;1243;54.298;10.172;2023-10-13T15:35:00;9.70;;;7.20;;
2462;SDS011;1243;54.298;10.172;2023-10-13T15:37:25;14.93;;;7.87;;
2462;SDS011;1243;54.298;10.172;2023-10-13T15:39:52;12.47;;;8.13;;
2462;SDS011;1243;54.298;10.172;2023-10-13T15:42:18;10.27;;;7.00;;
2462;SDS011;1243;54.298;10.172;2023-10-13T15:44:46;11.23;;;8.93;;
2462;SDS011;1243;54.298;10.172;2023-10-13T15:47:13;14.37;;;8.37;;
2462;SDS011;1243;54.298;10.172;2023-10-13T15:49:39;14.40;;;9.33;;
2462;SDS011;1243;54.298;10.172;2023-10-13T15:52:07;17.30;;;8.30;;
2462;SDS011;1243;54.298;10.172;2023-10-13T15:54:34;15.00;;;8.23;;
2462;SDS011;1243;54.298;10.172;2023-10-13T15:57:00;10.13;;;7.40;;
2462;SDS011;1243;54.298;10.172;2023-10-13T15:59:26;13.30;;;8.50;;
2462;SDS011;1243;54.298;10.172;2023-10-13T16:01:52;13.60;;;9.27;;